sensor_id;sensor_type;location;lat;lon;timestamp;temperature;humidity
4518;DHT22;2271;49.464;11.070;2023-04-19T00:01:23;10.00;99.90
4518;DHT22;2271;49.464;11.070;2023-04-19T00:03:49;10.00;99.90
4518;DHT22;2271;49.464;11.070;2023-04-19T00:06:15;10.10;99.90
4518;DHT22;2271;49.464;11.070;2023-04-19T00:08:42;10.10;99.90
4518;DHT22;2271;49.464;11.070;2023-04-19T00:11:08;10.20;99.90
4518;DHT22;2271;49.464;11.070;2023-04-19T00:13:34;10.20;99.90
4518;DHT22;2271;49.464;11.070;2023-04-19T00:16:00;10.20;99.90
4518;DHT22;2271;49.464;11.070;2023-04-19T00:18:26;10.10;99.90
4518;DHT22;2271;49.464;11.070;2023-04-19T00:20:52;10.20;99.90
4518;DHT22;2271;49.464;11.070;2023-04-19T00:23:17;10.10;99.90
4518;DHT22;2271;49.464;11.070;2023-04-19T00:25:45;10.10;99.90
4518;DHT22;2271;49.464;11.070;2023-04-19T00:28:11;10.00;99.90
4518;DHT22;2271;49.464;11.070;2023-04-19T00:30:36;10.00;99.90
4518;DHT22;2271;49.464;11.070;2023-04-19T00:33:02;10.00;99.90
4518;DHT22;2271;49.464;11.070;2023-04-19T00:35:27;9.90;99.90
4518;DHT22;2271;49.464;11.070;2023-04-19T00:37:53;9.90;99.90
4518;DHT22;2271;49.464;11.070;2023-04-19T00:40:19;9.80;99.90
4518;DHT22;2271;49.464;11.070;2023-04-19T00:42:44;9.80;99.90
4518;DHT22;2271;49.464;11.070;2023-04-19T00:45:10;9.80;99.90
4518;DHT22;2271;49.464;11.070;2023-04-19T00:47:36;9.80;99.90
4518;DHT22;2271;49.464;11.070;2023-04-19T00:50:03;9.70;99.90
4518;DHT22;2271;49.464;11.070;2023-04-19T00:52:29;9.70;99.90
4518;DHT22;2271;49.464;11.070;2023-04-19T00:54:55;9.70;99.90
4518;DHT22;2271;49.464;11.070;2023-04-19T00:57:22;9.60;99.90
4518;DHT22;2271;49.464;11.070;2023-04-19T00:59:49;9.70;99.90
4518;DHT22;2271;49.464;11.070;2023-04-19T01:02:15;9.60;99.90
4518;DHT22;2271;49.464;11.070;2023-04-19T01:04:41;9.50;99.90
4518;DHT22;2271;49.464;11.070;2023-04-19T01:07:08;9.50;99.90
4518;DHT22;2271;49.464;11.070;2023-04-19T01:09:33;9.50;99.90
4518;DHT22;2271;49.464;11.070;2023-04-19T01:12:00;9.50;99.90
4518;DHT22;2271;49.464;11.070;2023-04-19T01:14:26;9.50;99.90
4518;DHT22;2271;49.464;11.070;2023-04-19T01:16:52;9.60;99.90
4518;DHT22;2271;49.464;11.070;2023-04-19T01:19:18;9.60;99.90
4518;DHT22;2271;49.464;11.070;2023-04-19T01:21:44;9.70;99.90
4518;DHT22;2271;49.464;11.070;2023-04-19T01:24:10;9.70;99.90
4518;DHT22;2271;49.464;11.070;2023-04-19T01:26:36;9.80;99.90
4518;DHT22;2271;49.464;11.070;2023-04-19T01:29:02;9.80;99.90
4518;DHT22;2271;49.464;11.070;2023-04-19T01:31:27;9.80;99.90
4518;DHT22;2271;49.464;11.070;2023-04-19T01:33:53;9.80;99.90
4518;DHT22;2271;49.464;11.070;2023-04-19T01:36:19;9.80;99.90
4518;DHT22;2271;49.464;11.070;2023-04-19T01:38:44;9.80;99.90
4518;DHT22;2271;49.464;11.070;2023-04-19T01:41:12;9.70;99.90
4518;DHT22;2271;49.464;11.070;2023-04-19T01:43:37;9.70;99.90
4518;DHT22;2271;49.464;11.070;2023-04-19T01:46:03;9.70;99.90
4518;DHT22;2271;49.464;11.070;2023-04-19T01:48:29;9.70;99.90
4518;DHT22;2271;49.464;11.070;2023-04-19T01:50:54;9.70;99.90
4518;DHT22;2271;49.464;11.070;2023-04-19T01:53:20;9.60;99.90
4518;DHT22;2271;49.464;11.070;2023-04-19T01:55:46;9.60;99.90
4518;DHT22;2271;49.464;11.070;2023-04-19T01:58:11;9.60;99.90
4518;DHT22;2271;49.464;11.070;2023-04-19T02:00:37;9.50;99.90
4518;DHT22;2271;49.464;11.070;2023-04-19T02:03:02;9.50;99.90
4518;DHT22;2271;49.464;11.070;2023-04-19T02:05:28;9.50;99.90
4518;DHT22;2271;49.464;11.070;2023-04-19T02:07:54;9.50;99.90
4518;DHT22;2271;49.464;11.070;2023-04-19T02:10:19;9.50;99.90
4518;DHT22;2271;49.464;11.070;2023-04-19T02:12:45;9.50;99.90
4518;DHT22;2271;49.464;11.070;2023-04-19T02:15:11;9.50;99.90
4518;DHT22;2271;49.464;11.070;2023-04-19T02:17:36;9.50;99.90
4518;DHT22;2271;49.464;11.070;2023-04-19T02:20:03;9.50;99.90
4518;DHT22;2271;49.464;11.070;2023-04-19T02:22:29;9.50;99.90
4518;DHT22;2271;49.464;11.070;2023-04-19T02:24:55;9.40;99.90
4518;DHT22;2271;49.464;11.070;2023-04-19T02:27:20;9.40;99.90
4518;DHT22;2271;49.464;11.070;2023-04-19T02:29:46;9.40;99.90
4518;DHT22;2271;49.464;11.070;2023-04-19T02:32:12;9.30;99.90
4518;DHT22;2271;49.464;11.070;2023-04-19T02:34:38;9.40;99.90
4518;DHT22;2271;49.464;11.070;2023-04-19T02:37:04;9.40;99.90
4518;DHT22;2271;49.464;11.070;2023-04-19T02:39:30;9.40;99.90
4518;DHT22;2271;49.464;11.070;2023-04-19T02:41:55;9.40;99.90
4518;DHT22;2271;49.464;11.070;2023-04-19T02:44:21;9.40;99.90
4518;DHT22;2271;49.464;11.070;2023-04-19T02:46:48;9.30;99.90
4518;DHT22;2271;49.464;11.070;2023-04-19T02:49:14;9.30;99.90
4518;DHT22;2271;49.464;11.070;2023-04-19T02:51:40;9.30;99.90
4518;DHT22;2271;49.464;11.070;2023-04-19T02:54:06;9.30;99.90
4518;DHT22;2271;49.464;11.070;2023-04-19T02:56:31;9.30;99.90
4518;DHT22;2271;49.464;11.070;2023-04-19T02:59:00;9.20;99.90
4518;DHT22;2271;49.464;11.070;2023-04-19T03:01:25;9.20;99.90
4518;DHT22;2271;49.464;11.070;2023-04-19T03:03:52;9.20;99.90
4518;DHT22;2271;49.464;11.070;2023-04-19T03:06:18;9.20;99.90
4518;DHT22;2271;49.464;11.070;2023-04-19T03:08:44;9.20;99.90
4518;DHT22;2271;49.464;11.070;2023-04-19T03:11:11;9.20;99.90
4518;DHT22;2271;49.464;11.070;2023-04-19T03:13:37;9.20;99.90
4518;DHT22;2271;49.464;11.070;2023-04-19T03:16:04;9.20;99.90
4518;DHT22;2271;49.464;11.070;2023-04-19T03:18:30;9.10;99.90
4518;DHT22;2271;49.464;11.070;2023-04-19T03:20:56;9.10;99.90
4518;DHT22;2271;49.464;11.070;2023-04-19T03:23:21;9.10;99.90
4518;DHT22;2271;49.464;11.070;2023-04-19T03:25:47;9.00;99.90
4518;DHT22;2271;49.464;11.070;2023-04-19T03:28:13;9.00;99.90
4518;DHT22;2271;49.464;11.070;2023-04-19T03:30:39;9.00;99.90
4518;DHT22;2271;49.464;11.070;2023-04-19T03:33:04;8.90;99.90
4518;DHT22;2271;49.464;11.070;2023-04-19T03:35:30;8.90;99.90
4518;DHT22;2271;49.464;11.070;2023-04-19T03:37:57;8.90;99.90
4518;DHT22;2271;49.464;11.070;2023-04-19T03:40:22;8.90;99.90
4518;DHT22;2271;49.464;11.070;2023-04-19T03:42:48;8.90;99.90
4518;DHT22;2271;49.464;11.070;2023-04-19T03:45:14;8.90;99.90
4518;DHT22;2271;49.464;11.070;2023-04-19T03:47:39;9.00;99.90
4518;DHT22;2271;49.464;11.070;2023-04-19T03:50:05;9.00;99.90
4518;DHT22;2271;49.464;11.070;2023-04-19T03:52:31;9.00;99.90
4518;DHT22;2271;49.464;11.070;2023-04-19T03:54:57;9.00;99.90
4518;DHT22;2271;49.464;11.070;2023-04-19T03:57:22;9.00;99.90
4518;DHT22;2271;49.464;11.070;2023-04-19T03:59:48;9.00;99.90
4518;DHT22;2271;49.464;11.070;2023-04-19T04:02:13;8.90;99.90
4518;DHT22;2271;49.464;11.070;2023-04-19T04:04:39;8.90;99.90
4518;DHT22;2271;49.464;11.070;2023-04-19T04:07:05;8.90;99.90
4518;DHT22;2271;49.464;11.070;2023-04-19T04:09:30;8.90;99.90
4518;DHT22;2271;49.464;11.070;2023-04-19T04:11:56;8.90;99.90
4518;DHT22;2271;49.464;11.070;2023-04-19T04:14:22;8.90;99.90
4518;DHT22;2271;49.464;11.070;2023-04-19T04:16:48;8.90;99.90
4518;DHT22;2271;49.464;11.070;2023-04-19T04:19:14;8.90;99.90
4518;DHT22;2271;49.464;11.070;2023-04-19T04:21:39;8.90;99.90
4518;DHT22;2271;49.464;11.070;2023-04-19T04:24:05;9.00;99.90
4518;DHT22;2271;49.464;11.070;2023-04-19T04:26:32;9.00;99.90
4518;DHT22;2271;49.464;11.070;2023-04-19T04:28:59;9.00;99.90
4518;DHT22;2271;49.464;11.070;2023-04-19T04:31:26;9.00;99.90
4518;DHT22;2271;49.464;11.070;2023-04-19T04:33:52;9.00;99.90
4518;DHT22;2271;49.464;11.070;2023-04-19T04:36:19;9.00;99.90
4518;DHT22;2271;49.464;11.070;2023-04-19T04:38:45;9.00;99.90
4518;DHT22;2271;49.464;11.070;2023-04-19T04:41:11;9.00;99.90
4518;DHT22;2271;49.464;11.070;2023-04-19T04:43:37;9.00;99.90
4518;DHT22;2271;49.464;11.070;2023-04-19T04:46:04;9.00;99.90
4518;DHT22;2271;49.464;11.070;2023-04-19T04:48:30;9.00;99.90
4518;DHT22;2271;49.464;11.070;2023-04-19T04:50:56;9.00;99.90
4518;DHT22;2271;49.464;11.070;2023-04-19T04:53:24;9.00;99.90
4518;DHT22;2271;49.464;11.070;2023-04-19T04:55:52;9.00;99.90
4518;DHT22;2271;49.464;11.070;2023-04-19T04:58:18;9.00;99.90
4518;DHT22;2271;49.464;11.070;2023-04-19T05:00:43;9.00;99.90
4518;DHT22;2271;49.464;11.070;2023-04-19T05:03:09;9.00;99.90
4518;DHT22;2271;49.464;11.070;2023-04-19T05:05:35;9.00;99.90
4518;DHT22;2271;49.464;11.070;2023-04-19T05:08:00;9.00;99.90
4518;DHT22;2271;49.464;11.070;2023-04-19T05:10:26;9.00;99.90
4518;DHT22;2271;49.464;11.070;2023-04-19T05:12:52;9.00;99.90
4518;DHT22;2271;49.464;11.070;2023-04-19T05:15:17;9.10;99.90
4518;DHT22;2271;49.464;11.070;2023-04-19T05:17:43;9.10;99.90
4518;DHT22;2271;49.464;11.070;2023-04-19T05:20:09;9.10;99.90
4518;DHT22;2271;49.464;11.070;2023-04-19T05:22:34;9.20;99.90
4518;DHT22;2271;49.464;11.070;2023-04-19T05:25:00;9.20;99.90
4518;DHT22;2271;49.464;11.070;2023-04-19T05:27:26;9.30;99.90
4518;DHT22;2271;49.464;11.070;2023-04-19T05:29:52;9.30;99.90
4518;DHT22;2271;49.464;11.070;2023-04-19T05:32:18;9.30;99.90
4518;DHT22;2271;49.464;11.070;2023-04-19T05:34:43;9.40;99.90
4518;DHT22;2271;49.464;11.070;2023-04-19T05:37:09;9.40;99.90
4518;DHT22;2271;49.464;11.070;2023-04-19T05:39:35;9.40;99.90
4518;DHT22;2271;49.464;11.070;2023-04-19T05:42:00;9.40;99.90
4518;DHT22;2271;49.464;11.070;2023-04-19T05:44:26;9.50;99.90
4518;DHT22;2271;49.464;11.070;2023-04-19T05:46:51;9.40;99.90
4518;DHT22;2271;49.464;11.070;2023-04-19T05:49:17;9.40;99.90
4518;DHT22;2271;49.464;11.070;2023-04-19T05:51:42;9.40;99.90
4518;DHT22;2271;49.464;11.070;2023-04-19T05:54:08;9.40;99.90
4518;DHT22;2271;49.464;11.070;2023-04-19T05:56:37;9.40;99.90
4518;DHT22;2271;49.464;11.070;2023-04-19T05:59:03;9.40;99.90
4518;DHT22;2271;49.464;11.070;2023-04-19T06:01:29;9.50;99.90
4518;DHT22;2271;49.464;11.070;2023-04-19T06:03:54;9.50;99.90
4518;DHT22;2271;49.464;11.070;2023-04-19T06:06:21;9.40;99.90
4518;DHT22;2271;49.464;11.070;2023-04-19T06:08:48;9.50;99.90
4518;DHT22;2271;49.464;11.070;2023-04-19T06:11:13;9.50;99.90
4518;DHT22;2271;49.464;11.070;2023-04-19T06:13:39;9.50;99.90
4518;DHT22;2271;49.464;11.070;2023-04-19T06:16:05;9.50;99.90
4518;DHT22;2271;49.464;11.070;2023-04-19T06:18:32;9.60;99.90
4518;DHT22;2271;49.464;11.070;2023-04-19T06:20:58;9.60;99.90
4518;DHT22;2271;49.464;11.070;2023-04-19T06:23:23;9.60;99.90
4518;DHT22;2271;49.464;11.070;2023-04-19T06:25:50;9.60;99.90
4518;DHT22;2271;49.464;11.070;2023-04-19T06:28:15;9.60;99.90
4518;DHT22;2271;49.464;11.070;2023-04-19T06:30:41;9.70;99.90
4518;DHT22;2271;49.464;11.070;2023-04-19T06:33:07;9.60;99.90
4518;DHT22;2271;49.464;11.070;2023-04-19T06:35:32;9.70;99.90
4518;DHT22;2271;49.464;11.070;2023-04-19T06:37:58;9.70;99.90
4518;DHT22;2271;49.464;11.070;2023-04-19T06:40:25;9.70;99.90
4518;DHT22;2271;49.464;11.070;2023-04-19T06:42:51;9.70;99.90
4518;DHT22;2271;49.464;11.070;2023-04-19T06:45:17;9.70;99.90
4518;DHT22;2271;49.464;11.070;2023-04-19T06:47:43;9.70;99.90
4518;DHT22;2271;49.464;11.070;2023-04-19T06:50:09;9.70;99.90
4518;DHT22;2271;49.464;11.070;2023-04-19T06:52:35;9.80;99.90
4518;DHT22;2271;49.464;11.070;2023-04-19T06:55:01;9.80;99.90
4518;DHT22;2271;49.464;11.070;2023-04-19T06:57:26;9.90;99.90
4518;DHT22;2271;49.464;11.070;2023-04-19T06:59:53;9.90;99.90
4518;DHT22;2271;49.464;11.070;2023-04-19T07:02:19;9.80;99.90
4518;DHT22;2271;49.464;11.070;2023-04-19T07:04:45;9.80;99.90
4518;DHT22;2271;49.464;11.070;2023-04-19T07:07:11;9.90;99.90
4518;DHT22;2271;49.464;11.070;2023-04-19T07:09:37;9.90;99.90
4518;DHT22;2271;49.464;11.070;2023-04-19T07:12:04;9.90;99.90
4518;DHT22;2271;49.464;11.070;2023-04-19T07:14:30;9.90;99.90
4518;DHT22;2271;49.464;11.070;2023-04-19T07:16:55;10.00;99.90
4518;DHT22;2271;49.464;11.070;2023-04-19T07:19:21;10.00;99.90
4518;DHT22;2271;49.464;11.070;2023-04-19T07:21:47;10.00;99.90
4518;DHT22;2271;49.464;11.070;2023-04-19T07:24:12;10.00;99.90
4518;DHT22;2271;49.464;11.070;2023-04-19T07:26:38;10.00;99.90
4518;DHT22;2271;49.464;11.070;2023-04-19T07:29:04;10.10;99.90
4518;DHT22;2271;49.464;11.070;2023-04-19T07:31:30;10.10;99.90
4518;DHT22;2271;49.464;11.070;2023-04-19T07:33:55;10.20;99.90
4518;DHT22;2271;49.464;11.070;2023-04-19T07:36:21;10.20;99.90
4518;DHT22;2271;49.464;11.070;2023-04-19T07:38:47;10.30;99.90
4518;DHT22;2271;49.464;11.070;2023-04-19T07:41:12;10.30;99.90
4518;DHT22;2271;49.464;11.070;2023-04-19T07:43:38;10.30;99.90
4518;DHT22;2271;49.464;11.070;2023-04-19T07:46:11;10.20;99.90
4518;DHT22;2271;49.464;11.070;2023-04-19T07:48:38;10.30;99.90
4518;DHT22;2271;49.464;11.070;2023-04-19T07:51:10;10.40;99.90
4518;DHT22;2271;49.464;11.070;2023-04-19T07:53:37;10.40;99.90
4518;DHT22;2271;49.464;11.070;2023-04-19T07:56:03;10.30;99.90
4518;DHT22;2271;49.464;11.070;2023-04-19T07:58:29;10.20;99.90
4518;DHT22;2271;49.464;11.070;2023-04-19T08:00:55;10.30;99.90
4518;DHT22;2271;49.464;11.070;2023-04-19T08:03:20;10.20;99.90
4518;DHT22;2271;49.464;11.070;2023-04-19T08:05:46;10.10;99.90
4518;DHT22;2271;49.464;11.070;2023-04-19T08:08:12;10.00;99.90
4518;DHT22;2271;49.464;11.070;2023-04-19T08:10:37;9.90;99.90
4518;DHT22;2271;49.464;11.070;2023-04-19T08:13:03;9.90;99.90
4518;DHT22;2271;49.464;11.070;2023-04-19T08:15:28;9.90;99.90
4518;DHT22;2271;49.464;11.070;2023-04-19T08:17:54;10.00;99.90
4518;DHT22;2271;49.464;11.070;2023-04-19T08:20:20;10.10;99.90
4518;DHT22;2271;49.464;11.070;2023-04-19T08:22:46;10.10;99.90
4518;DHT22;2271;49.464;11.070;2023-04-19T08:25:12;10.00;99.90
4518;DHT22;2271;49.464;11.070;2023-04-19T08:27:37;9.90;99.90
4518;DHT22;2271;49.464;11.070;2023-04-19T08:30:03;9.70;99.90
4518;DHT22;2271;49.464;11.070;2023-04-19T08:32:29;9.70;99.90
4518;DHT22;2271;49.464;11.070;2023-04-19T08:34:55;9.60;99.90
4518;DHT22;2271;49.464;11.070;2023-04-19T08:37:21;9.50;99.90
4518;DHT22;2271;49.464;11.070;2023-04-19T08:39:47;9.40;99.90
4518;DHT22;2271;49.464;11.070;2023-04-19T08:42:12;9.40;99.90
4518;DHT22;2271;49.464;11.070;2023-04-19T08:44:39;9.60;99.90
4518;DHT22;2271;49.464;11.070;2023-04-19T08:47:05;9.70;99.90
4518;DHT22;2271;49.464;11.070;2023-04-19T08:49:34;9.60;99.90
4518;DHT22;2271;49.464;11.070;2023-04-19T08:52:02;9.40;99.90
4518;DHT22;2271;49.464;11.070;2023-04-19T08:54:29;9.20;99.90
4518;DHT22;2271;49.464;11.070;2023-04-19T08:56:58;9.20;99.90
4518;DHT22;2271;49.464;11.070;2023-04-19T08:59:28;9.30;99.90
4518;DHT22;2271;49.464;11.070;2023-04-19T09:01:55;9.40;99.90
4518;DHT22;2271;49.464;11.070;2023-04-19T09:04:24;9.30;99.90
4518;DHT22;2271;49.464;11.070;2023-04-19T09:06:50;9.40;99.90
4518;DHT22;2271;49.464;11.070;2023-04-19T09:09:23;9.40;99.90
4518;DHT22;2271;49.464;11.070;2023-04-19T09:11:49;9.50;99.90
4518;DHT22;2271;49.464;11.070;2023-04-19T09:14:16;9.30;99.90
4518;DHT22;2271;49.464;11.070;2023-04-19T09:16:43;9.30;99.90
4518;DHT22;2271;49.464;11.070;2023-04-19T09:19:10;9.30;99.90
4518;DHT22;2271;49.464;11.070;2023-04-19T09:21:37;9.20;99.90
4518;DHT22;2271;49.464;11.070;2023-04-19T09:24:03;9.20;99.90
4518;DHT22;2271;49.464;11.070;2023-04-19T09:26:30;9.10;99.90
4518;DHT22;2271;49.464;11.070;2023-04-19T09:31:33;9.00;99.90
4518;DHT22;2271;49.464;11.070;2023-04-19T09:34:16;9.10;99.90
4518;DHT22;2271;49.464;11.070;2023-04-19T09:36:42;9.20;99.90
4518;DHT22;2271;49.464;11.070;2023-04-19T09:39:08;9.30;99.90
4518;DHT22;2271;49.464;11.070;2023-04-19T09:41:35;9.20;99.90
4518;DHT22;2271;49.464;11.070;2023-04-19T09:44:14;9.20;99.90
4518;DHT22;2271;49.464;11.070;2023-04-19T09:46:41;9.20;99.90
4518;DHT22;2271;49.464;11.070;2023-04-19T09:51:55;9.20;99.90
4518;DHT22;2271;49.464;11.070;2023-04-19T09:54:24;9.30;99.90
4518;DHT22;2271;49.464;11.070;2023-04-19T09:56:51;9.30;99.90
4518;DHT22;2271;49.464;11.070;2023-04-19T09:59:17;9.30;99.90
4518;DHT22;2271;49.464;11.070;2023-04-19T10:01:55;9.10;99.90
4518;DHT22;2271;49.464;11.070;2023-04-19T10:04:23;8.80;99.90
4518;DHT22;2271;49.464;11.070;2023-04-19T10:06:51;8.80;99.90
4518;DHT22;2271;49.464;11.070;2023-04-19T10:09:18;9.00;99.90
4518;DHT22;2271;49.464;11.070;2023-04-19T10:11:52;9.00;99.90
4518;DHT22;2271;49.464;11.070;2023-04-19T10:14:24;9.00;99.90
4518;DHT22;2271;49.464;11.070;2023-04-19T10:16:52;9.00;99.90
4518;DHT22;2271;49.464;11.070;2023-04-19T10:19:19;9.20;99.90
4518;DHT22;2271;49.464;11.070;2023-04-19T10:21:47;9.20;99.90
4518;DHT22;2271;49.464;11.070;2023-04-19T10:24:15;9.30;99.90
4518;DHT22;2271;49.464;11.070;2023-04-19T10:27:11;9.30;99.90
4518;DHT22;2271;49.464;11.070;2023-04-19T10:29:58;9.50;99.90
4518;DHT22;2271;49.464;11.070;2023-04-19T10:32:29;9.80;99.90
4518;DHT22;2271;49.464;11.070;2023-04-19T10:35:06;10.10;99.90
4518;DHT22;2271;49.464;11.070;2023-04-19T10:37:31;10.40;99.90
4518;DHT22;2271;49.464;11.070;2023-04-19T10:39:57;10.60;99.90
4518;DHT22;2271;49.464;11.070;2023-04-19T10:42:23;11.10;99.90
4518;DHT22;2271;49.464;11.070;2023-04-19T10:47:53;11.60;99.90
4518;DHT22;2271;49.464;11.070;2023-04-19T10:50:18;11.50;99.90
4518;DHT22;2271;49.464;11.070;2023-04-19T10:52:44;11.40;99.90
4518;DHT22;2271;49.464;11.070;2023-04-19T10:55:14;11.50;99.90
4518;DHT22;2271;49.464;11.070;2023-04-19T10:58:03;11.80;99.90
4518;DHT22;2271;49.464;11.070;2023-04-19T11:00:29;11.90;99.90
4518;DHT22;2271;49.464;11.070;2023-04-19T11:03:00;11.60;99.90
4518;DHT22;2271;49.464;11.070;2023-04-19T11:06:14;11.30;99.90
4518;DHT22;2271;49.464;11.070;2023-04-19T11:08:43;11.40;99.90
4518;DHT22;2271;49.464;11.070;2023-04-19T11:11:09;11.70;99.90
4518;DHT22;2271;49.464;11.070;2023-04-19T11:13:36;11.50;99.90
4518;DHT22;2271;49.464;11.070;2023-04-19T11:16:07;11.20;99.90
4518;DHT22;2271;49.464;11.070;2023-04-19T11:18:32;11.20;99.90
4518;DHT22;2271;49.464;11.070;2023-04-19T11:20:58;11.80;99.90
4518;DHT22;2271;49.464;11.070;2023-04-19T11:23:25;12.10;99.90
4518;DHT22;2271;49.464;11.070;2023-04-19T11:25:52;12.50;99.90
4518;DHT22;2271;49.464;11.070;2023-04-19T11:28:18;12.40;99.90
4518;DHT22;2271;49.464;11.070;2023-04-19T11:30:46;12.00;99.90
4518;DHT22;2271;49.464;11.070;2023-04-19T11:33:12;11.90;99.90
4518;DHT22;2271;49.464;11.070;2023-04-19T11:35:37;11.90;99.90
4518;DHT22;2271;49.464;11.070;2023-04-19T11:38:04;12.20;99.90
4518;DHT22;2271;49.464;11.070;2023-04-19T11:40:30;12.30;99.90
4518;DHT22;2271;49.464;11.070;2023-04-19T11:43:03;12.00;99.90
4518;DHT22;2271;49.464;11.070;2023-04-19T11:45:34;12.00;99.90
4518;DHT22;2271;49.464;11.070;2023-04-19T11:48:01;11.90;99.90
4518;DHT22;2271;49.464;11.070;2023-04-19T11:55:41;11.80;99.90
4518;DHT22;2271;49.464;11.070;2023-04-19T11:58:07;11.80;99.90
4518;DHT22;2271;49.464;11.070;2023-04-19T12:00:34;12.10;99.90
4518;DHT22;2271;49.464;11.070;2023-04-19T12:03:00;12.30;99.90
4518;DHT22;2271;49.464;11.070;2023-04-19T12:05:26;12.60;99.90
4518;DHT22;2271;49.464;11.070;2023-04-19T12:08:02;12.40;99.90
4518;DHT22;2271;49.464;11.070;2023-04-19T12:10:29;12.50;99.90
4518;DHT22;2271;49.464;11.070;2023-04-19T12:12:55;12.80;99.90
4518;DHT22;2271;49.464;11.070;2023-04-19T12:15:21;12.70;99.90
4518;DHT22;2271;49.464;11.070;2023-04-19T12:17:59;12.50;99.90
4518;DHT22;2271;49.464;11.070;2023-04-19T12:20:34;12.80;99.90
4518;DHT22;2271;49.464;11.070;2023-04-19T12:23:01;12.80;99.90
4518;DHT22;2271;49.464;11.070;2023-04-19T12:25:31;12.60;99.90
4518;DHT22;2271;49.464;11.070;2023-04-19T12:28:02;12.60;99.90
4518;DHT22;2271;49.464;11.070;2023-04-19T12:30:27;12.80;99.90
4518;DHT22;2271;49.464;11.070;2023-04-19T12:32:53;12.90;99.90
4518;DHT22;2271;49.464;11.070;2023-04-19T12:35:21;12.80;99.90
4518;DHT22;2271;49.464;11.070;2023-04-19T12:37:47;12.40;99.90
4518;DHT22;2271;49.464;11.070;2023-04-19T12:40:14;12.20;99.90
4518;DHT22;2271;49.464;11.070;2023-04-19T12:42:39;12.30;99.90
4518;DHT22;2271;49.464;11.070;2023-04-19T12:45:05;12.40;99.90
4518;DHT22;2271;49.464;11.070;2023-04-19T12:47:31;12.50;99.90
4518;DHT22;2271;49.464;11.070;2023-04-19T12:49:57;12.30;99.90
4518;DHT22;2271;49.464;11.070;2023-04-19T12:52:23;12.30;99.90
4518;DHT22;2271;49.464;11.070;2023-04-19T12:54:48;12.40;99.90
4518;DHT22;2271;49.464;11.070;2023-04-19T12:57:15;12.70;99.90
4518;DHT22;2271;49.464;11.070;2023-04-19T12:59:40;12.90;99.90
4518;DHT22;2271;49.464;11.070;2023-04-19T13:02:06;12.90;99.90
4518;DHT22;2271;49.464;11.070;2023-04-19T13:04:32;12.90;99.90
4518;DHT22;2271;49.464;11.070;2023-04-19T13:06:58;12.90;99.90
4518;DHT22;2271;49.464;11.070;2023-04-19T13:09:25;13.00;99.90
4518;DHT22;2271;49.464;11.070;2023-04-19T13:11:51;13.00;99.90
4518;DHT22;2271;49.464;11.070;2023-04-19T13:14:16;13.10;99.90
4518;DHT22;2271;49.464;11.070;2023-04-19T13:16:42;13.30;98.70
4518;DHT22;2271;49.464;11.070;2023-04-19T13:19:07;13.30;98.50
4518;DHT22;2271;49.464;11.070;2023-04-19T13:21:33;13.00;97.10
4518;DHT22;2271;49.464;11.070;2023-04-19T13:23:58;12.90;98.00
4518;DHT22;2271;49.464;11.070;2023-04-19T13:26:24;13.00;98.00
4518;DHT22;2271;49.464;11.070;2023-04-19T13:28:50;13.10;96.70
4518;DHT22;2271;49.464;11.070;2023-04-19T13:31:16;13.00;97.30
4518;DHT22;2271;49.464;11.070;2023-04-19T13:33:41;13.00;97.20
4518;DHT22;2271;49.464;11.070;2023-04-19T13:36:07;13.20;97.00
4518;DHT22;2271;49.464;11.070;2023-04-19T13:38:33;12.80;95.50
4518;DHT22;2271;49.464;11.070;2023-04-19T13:40:58;12.40;97.40
4518;DHT22;2271;49.464;11.070;2023-04-19T13:43:24;12.60;98.60
4518;DHT22;2271;49.464;11.070;2023-04-19T13:45:50;13.00;99.50
4518;DHT22;2271;49.464;11.070;2023-04-19T13:48:16;13.10;99.90
4518;DHT22;2271;49.464;11.070;2023-04-19T13:50:42;12.90;99.40
4518;DHT22;2271;49.464;11.070;2023-04-19T13:53:07;12.80;99.90
4518;DHT22;2271;49.464;11.070;2023-04-19T13:55:33;12.90;99.90
4518;DHT22;2271;49.464;11.070;2023-04-19T13:57:59;12.70;99.90
4518;DHT22;2271;49.464;11.070;2023-04-19T14:00:24;12.60;99.90
4518;DHT22;2271;49.464;11.070;2023-04-19T14:02:50;12.60;99.90
4518;DHT22;2271;49.464;11.070;2023-04-19T14:05:16;12.50;99.90
4518;DHT22;2271;49.464;11.070;2023-04-19T14:07:41;12.50;99.90
4518;DHT22;2271;49.464;11.070;2023-04-19T14:10:08;12.80;99.90
4518;DHT22;2271;49.464;11.070;2023-04-19T14:12:34;12.50;99.90
4518;DHT22;2271;49.464;11.070;2023-04-19T14:15:00;12.20;99.90
4518;DHT22;2271;49.464;11.070;2023-04-19T14:17:25;12.10;99.90
4518;DHT22;2271;49.464;11.070;2023-04-19T14:19:51;12.20;99.90
4518;DHT22;2271;49.464;11.070;2023-04-19T14:22:17;12.20;99.90
4518;DHT22;2271;49.464;11.070;2023-04-19T14:24:43;12.40;99.90
4518;DHT22;2271;49.464;11.070;2023-04-19T14:27:10;12.60;99.90
4518;DHT22;2271;49.464;11.070;2023-04-19T14:29:36;12.60;99.90
4518;DHT22;2271;49.464;11.070;2023-04-19T14:32:01;12.40;99.90
4518;DHT22;2271;49.464;11.070;2023-04-19T14:34:27;12.00;99.90
4518;DHT22;2271;49.464;11.070;2023-04-19T14:36:53;12.10;99.90
4518;DHT22;2271;49.464;11.070;2023-04-19T14:39:18;12.00;99.90
4518;DHT22;2271;49.464;11.070;2023-04-19T14:41:44;12.10;99.90
4518;DHT22;2271;49.464;11.070;2023-04-19T14:44:10;12.20;99.90
4518;DHT22;2271;49.464;11.070;2023-04-19T14:46:35;11.70;99.90
4518;DHT22;2271;49.464;11.070;2023-04-19T14:49:01;11.40;99.90
4518;DHT22;2271;49.464;11.070;2023-04-19T14:51:33;11.40;99.90
4518;DHT22;2271;49.464;11.070;2023-04-19T14:53:59;11.30;99.90
4518;DHT22;2271;49.464;11.070;2023-04-19T14:56:24;11.20;99.90
4518;DHT22;2271;49.464;11.070;2023-04-19T14:58:53;11.30;99.90
4518;DHT22;2271;49.464;11.070;2023-04-19T15:01:19;11.70;99.90
4518;DHT22;2271;49.464;11.070;2023-04-19T15:03:47;11.80;99.90
4518;DHT22;2271;49.464;11.070;2023-04-19T15:06:12;12.00;99.90
4518;DHT22;2271;49.464;11.070;2023-04-19T15:08:38;12.00;99.90
4518;DHT22;2271;49.464;11.070;2023-04-19T15:11:05;12.20;99.90
4518;DHT22;2271;49.464;11.070;2023-04-19T15:13:31;11.90;99.90
4518;DHT22;2271;49.464;11.070;2023-04-19T15:15:58;11.80;99.90
4518;DHT22;2271;49.464;11.070;2023-04-19T15:18:23;11.60;99.90
4518;DHT22;2271;49.464;11.070;2023-04-19T15:20:49;11.50;99.90
4518;DHT22;2271;49.464;11.070;2023-04-19T15:23:15;11.50;99.90
4518;DHT22;2271;49.464;11.070;2023-04-19T15:25:41;11.60;99.90
4518;DHT22;2271;49.464;11.070;2023-04-19T15:28:06;11.40;99.90
4518;DHT22;2271;49.464;11.070;2023-04-19T15:30:32;11.30;99.90
4518;DHT22;2271;49.464;11.070;2023-04-19T15:32:57;11.30;99.90
4518;DHT22;2271;49.464;11.070;2023-04-19T15:35:26;11.20;99.90
4518;DHT22;2271;49.464;11.070;2023-04-19T15:37:52;11.30;99.90
4518;DHT22;2271;49.464;11.070;2023-04-19T15:40:17;11.30;99.90
4518;DHT22;2271;49.464;11.070;2023-04-19T15:42:43;11.30;99.90
4518;DHT22;2271;49.464;11.070;2023-04-19T15:45:09;11.30;99.90
4518;DHT22;2271;49.464;11.070;2023-04-19T15:47:35;11.20;99.90
4518;DHT22;2271;49.464;11.070;2023-04-19T15:50:00;11.20;99.90
4518;DHT22;2271;49.464;11.070;2023-04-19T15:52:29;11.30;99.90
4518;DHT22;2271;49.464;11.070;2023-04-19T15:54:54;11.20;99.90
4518;DHT22;2271;49.464;11.070;2023-04-19T15:57:20;11.10;99.90
4518;DHT22;2271;49.464;11.070;2023-04-19T15:59:46;11.30;99.90
4518;DHT22;2271;49.464;11.070;2023-04-19T16:02:11;11.40;99.90
4518;DHT22;2271;49.464;11.070;2023-04-19T16:04:37;11.20;99.90